M/y Australis — ZGAH4 — position and weather

sailwx.info

Track history (hours):
 
Tides and Currents Weather Stations Pressure Air Temp Water Temp Dewpoint Dewpoint Depression Visibility Wind Speed Wind Dir Waves Ship Positions

M/y Australis

Last reported at 2014-Jun-15 06:33 UTC. Time now 2014-Aug-21 12:15 UTC.
Position N 38°05' E 015°36'.
Warning: this ship's position is months out of date.

Length 48 m; draft 2.5 m.

Type: Pleasure craft. MMSI: 319016800.

Date/timePositionNaut miles runAvg speedWind from/ knotsBaromVisibWave heightAir tempDewpointWater temp
2014-Jun-15 06:33N 38°05' E 015°36'16112.3
2014-Jun-14 17:30N 40°34' E 014°18'1212.8
2014-Jun-14 16:33N 40°46' E 014°15'4 0.6
2014-Jun-14 10:25N 40°50' E 014°13'6 1.0
2014-Jun-14 04:33N 40°44' E 014°14'10 9.8
2014-Jun-14 03:30N 40°33' E 014°15'0 0.0
2014-Jun-14 02:27N 40°33' E 014°15'0 0.0
2014-Jun-14 01:21N 40°33' E 014°15'0 0.0
2014-Jun-14 00:33N 40°33' E 014°15'0 0.0
2014-Jun-13 23:33N 40°33' E 014°15'0 0.0
2014-Jun-13 22:27N 40°33' E 014°15'0 0.0
2014-Jun-13 21:27N 40°33' E 014°15'0 0.0
2014-Jun-13 20:27N 40°33' E 014°15'0 0.0
2014-Jun-13 19:33N 40°33' E 014°15'0 0.3
2014-Jun-13 18:33N 40°34' E 014°15'1 1.2
2014-Jun-13 17:33N 40°34' E 014°13'1 0.8
2014-Jun-13 16:33N 40°34' E 014°14'0 0.4
2014-Jun-13 15:32N 40°33' E 014°15'0 0.0
2014-Jun-13 14:32N 40°33' E 014°15'0 0.0
2014-Jun-13 13:29N 40°33' E 014°15'0 0.0
2014-Jun-13 12:26N 40°33' E 014°15'0 0.0
2014-Jun-13 11:32N 40°33' E 014°15'0 0.0
2014-Jun-13 10:20N 40°33' E 014°15'0 0.0
2014-Jun-13 09:23N 40°33' E 014°15'0 0.0
2014-Jun-13 08:08N 40°33' E 014°15'0 0.0
2014-Jun-13 07:32N 40°33' E 014°15'0 0.0
2014-Jun-13 06:23N 40°33' E 014°15'0 0.0
2014-Jun-13 05:29N 40°33' E 014°15'0 0.0
2014-Jun-13 04:23N 40°33' E 014°15'0 0.0
2014-Jun-13 03:26N 40°33' E 014°15'0 0.0
2014-Jun-13 02:23N 40°33' E 014°15'0 0.0
2014-Jun-13 01:29N 40°33' E 014°15'0 0.0
2014-Jun-13 00:32N 40°33' E 014°15'0 0.0
2014-Jun-12 23:32N 40°33' E 014°15'0 0.0
2014-Jun-12 22:29N 40°33' E 014°15'0 0.0
2014-Jun-12 21:29N 40°33' E 014°15'0 0.0
2014-Jun-12 20:05N 40°33' E 014°15'0 0.0
2014-Jun-12 19:25N 40°33' E 014°15'1 0.6
2014-Jun-12 18:25N 40°34' E 014°14'0 0.0
2014-Jun-12 17:33N 40°34' E 014°14'1010.0
2014-Jun-12 16:33N 40°35' E 014°27'6 0.3
2014-Jun-11 18:25N 40°34' E 014°19'1113.0
2014-Jun-11 17:33N 40°44' E 014°15'5 0.8
2014-Jun-11 11:17N 40°49' E 014°14'911.7
2014-Jun-11 10:33N 40°44' E 014°06'9 8.6
2014-Jun-11 09:31N 40°42' E 013°54'0 0.0
2014-Jun-11 08:07N 40°42' E 013°54'0 0.0
2014-Jun-11 07:31N 40°42' E 013°54'0 0.0
2014-Jun-11 06:33N 40°42' E 013°54'9 8.8
2014-Jun-11 05:33N 40°45' E 013°43'1110.6
2014-Jun-11 04:33N 40°51' E 013°32'1110.6
2014-Jun-11 03:33N 40°57' E 013°20'4510.3
2014-Jun-10 23:09N 41°22' E 012°30'  
2014-Jun-07 19:18N 42°44' E 010°06'6 8.3
2014-Jun-07 18:33N 42°49' E 010°10'5 1.4
2014-Jun-07 15:19N 42°49' E 010°16'0 0.0
2014-Jun-07 07:19N 42°49' E 010°16'0 0.0
2014-Jun-07 06:17N 42°49' E 010°16'4 5.4
2014-Jun-07 05:33N 42°52' E 010°13'1010.2
2014-Jun-07 04:33N 43°01' E 010°06'1110.6
2014-Jun-07 03:34N 43°11' E 009°60'1610.5
2014-Jun-07 02:03N 43°24' E 009°47'510.6
2014-Jun-07 01:33N 43°28' E 009°44'1010.2
2014-Jun-07 00:33N 43°38' E 009°38'1110.6
2014-Jun-06 23:34N 43°47' E 009°32'1010.4
2014-Jun-06 22:33N 43°57' E 009°26'1010.2
2014-Jun-06 21:34N 44°06' E 009°21'1010.5
2014-Jun-06 20:33N 44°16' E 009°14'3 0.9
2014-Jun-06 17:17N 44°19' E 009°13'0 0.0
2014-Jun-06 14:08N 44°19' E 009°13'0 0.0
2014-Jun-06 13:26N 44°19' E 009°13'0 0.0
2014-Jun-06 12:29N 44°19' E 009°13'0 0.0
2014-Jun-06 11:29N 44°19' E 009°13'1 0.7
2014-Jun-06 09:33N 44°17' E 009°12'1110.7
2014-Jun-06 08:33N 44°20' E 008°58'5 4.7
2014-Jun-06 07:33N 44°25' E 008°55'0 0.0
2014-Jun-06 06:24N 44°25' E 008°55'0 0.0
2014-Jun-06 05:12N 44°25' E 008°55'0 0.0
2014-Jun-06 04:30N 44°25' E 008°55'0 0.0
2014-Jun-06 03:30N 44°25' E 008°55'0 0.0
2014-Jun-06 02:27N 44°25' E 008°55'0 0.0
2014-Jun-06 01:33N 44°25' E 008°55'0 0.0
2014-Jun-06 00:27N 44°25' E 008°55'0 0.0
2014-Jun-05 23:21N 44°25' E 008°55'0 0.0
2014-Jun-05 22:30N 44°25' E 008°55'0 0.0
2014-Jun-05 21:30N 44°25' E 008°55'0 0.0
2014-Jun-05 20:24N 44°25' E 008°55'0 0.0
2014-Jun-05 19:30N 44°25' E 008°55'0 0.0
2014-Jun-05 18:24N 44°25' E 008°55'0 0.0
2014-Jun-05 17:18N 44°25' E 008°55'0 0.0
2014-Jun-05 16:24N 44°25' E 008°55'4 5.2
2014-Jun-05 15:33N 44°21' E 008°59'4 3.3
2014-Jun-05 14:15N 44°25' E 008°55'0 0.0
2014-Jun-05 12:12N 44°25' E 008°55'0 0.0
2014-Jun-05 11:21N 44°25' E 008°55'0 0.0
2014-Jun-05 10:24N 44°25' E 008°55'0 0.0
2014-Jun-05 09:30N 44°25' E 008°55'0 0.0
2014-Jun-05 08:24N 44°25' E 008°55'0 0.0
2014-Jun-05 07:30N 44°25' E 008°55'0 0.0
2014-Jun-05 06:33N 44°25' E 008°55'  
Track history (hours):
 
Tides and Currents Weather Stations Pressure Air Temp Water Temp Dewpoint Dewpoint Depression Visibility Wind Speed Wind Dir Waves Ship Positions

M/y Australis

Last reported at 2014-Jun-15 06:33 UTC. Time now 2014-Aug-21 12:15 UTC.
Position N 38°05' E 015°36'.
Warning: this ship's position is months out of date.

Length 48 m; draft 2.5 m.

Type: Pleasure craft. MMSI: 319016800.

Date/timePositionNaut miles runAvg speedWind from/ knotsBaromVisibWave heightAir tempDewpointWater temp
2014-Jun-15 06:33N 38°05' E 015°36'16112.3
2014-Jun-14 17:30N 40°34' E 014°18'1212.8
2014-Jun-14 16:33N 40°46' E 014°15'4 0.6
2014-Jun-14 10:25N 40°50' E 014°13'6 1.0
2014-Jun-14 04:33N 40°44' E 014°14'10 9.8
2014-Jun-14 03:30N 40°33' E 014°15'0 0.0
2014-Jun-14 02:27N 40°33' E 014°15'0 0.0
2014-Jun-14 01:21N 40°33' E 014°15'0 0.0
2014-Jun-14 00:33N 40°33' E 014°15'0 0.0
2014-Jun-13 23:33N 40°33' E 014°15'0 0.0
2014-Jun-13 22:27N 40°33' E 014°15'0 0.0
2014-Jun-13 21:27N 40°33' E 014°15'0 0.0
2014-Jun-13 20:27N 40°33' E 014°15'0 0.0
2014-Jun-13 19:33N 40°33' E 014°15'0 0.3
2014-Jun-13 18:33N 40°34' E 014°15'1 1.2
2014-Jun-13 17:33N 40°34' E 014°13'1 0.8
2014-Jun-13 16:33N 40°34' E 014°14'0 0.4
2014-Jun-13 15:32N 40°33' E 014°15'0 0.0
2014-Jun-13 14:32N 40°33' E 014°15'0 0.0
2014-Jun-13 13:29N 40°33' E 014°15'0 0.0
2014-Jun-13 12:26N 40°33' E 014°15'0 0.0
2014-Jun-13 11:32N 40°33' E 014°15'0 0.0
2014-Jun-13 10:20N 40°33' E 014°15'0 0.0
2014-Jun-13 09:23N 40°33' E 014°15'0 0.0
2014-Jun-13 08:08N 40°33' E 014°15'0 0.0
2014-Jun-13 07:32N 40°33' E 014°15'0 0.0
2014-Jun-13 06:23N 40°33' E 014°15'0 0.0
2014-Jun-13 05:29N 40°33' E 014°15'0 0.0
2014-Jun-13 04:23N 40°33' E 014°15'0 0.0
2014-Jun-13 03:26N 40°33' E 014°15'0 0.0
2014-Jun-13 02:23N 40°33' E 014°15'0 0.0
2014-Jun-13 01:29N 40°33' E 014°15'0 0.0
2014-Jun-13 00:32N 40°33' E 014°15'0 0.0
2014-Jun-12 23:32N 40°33' E 014°15'0 0.0
2014-Jun-12 22:29N 40°33' E 014°15'0 0.0
2014-Jun-12 21:29N 40°33' E 014°15'0 0.0
2014-Jun-12 20:05N 40°33' E 014°15'0 0.0
2014-Jun-12 19:25N 40°33' E 014°15'1 0.6
2014-Jun-12 18:25N 40°34' E 014°14'0 0.0
2014-Jun-12 17:33N 40°34' E 014°14'1010.0
2014-Jun-12 16:33N 40°35' E 014°27'6 0.3
2014-Jun-11 18:25N 40°34' E 014°19'1113.0
2014-Jun-11 17:33N 40°44' E 014°15'5 0.8
2014-Jun-11 11:17N 40°49' E 014°14'911.7
2014-Jun-11 10:33N 40°44' E 014°06'9 8.6
2014-Jun-11 09:31N 40°42' E 013°54'0 0.0
2014-Jun-11 08:07N 40°42' E 013°54'0 0.0
2014-Jun-11 07:31N 40°42' E 013°54'0 0.0
2014-Jun-11 06:33N 40°42' E 013°54'9 8.8
2014-Jun-11 05:33N 40°45' E 013°43'1110.6
2014-Jun-11 04:33N 40°51' E 013°32'1110.6
2014-Jun-11 03:33N 40°57' E 013°20'4510.3
2014-Jun-10 23:09N 41°22' E 012°30'  
2014-Jun-07 19:18N 42°44' E 010°06'6 8.3
2014-Jun-07 18:33N 42°49' E 010°10'5 1.4
2014-Jun-07 15:19N 42°49' E 010°16'0 0.0
2014-Jun-07 07:19N 42°49' E 010°16'0 0.0
2014-Jun-07 06:17N 42°49' E 010°16'4 5.4
2014-Jun-07 05:33N 42°52' E 010°13'1010.2
2014-Jun-07 04:33N 43°01' E 010°06'1110.6
2014-Jun-07 03:34N 43°11' E 009°60'1610.5
2014-Jun-07 02:03N 43°24' E 009°47'510.6
2014-Jun-07 01:33N 43°28' E 009°44'1010.2
2014-Jun-07 00:33N 43°38' E 009°38'1110.6
2014-Jun-06 23:34N 43°47' E 009°32'1010.4
2014-Jun-06 22:33N 43°57' E 009°26'1010.2
2014-Jun-06 21:34N 44°06' E 009°21'1010.5
2014-Jun-06 20:33N 44°16' E 009°14'3 0.9
2014-Jun-06 17:17N 44°19' E 009°13'0 0.0
2014-Jun-06 14:08N 44°19' E 009°13'0 0.0
2014-Jun-06 13:26N 44°19' E 009°13'0 0.0
2014-Jun-06 12:29N 44°19' E 009°13'0 0.0
2014-Jun-06 11:29N 44°19' E 009°13'1 0.7
2014-Jun-06 09:33N 44°17' E 009°12'1110.7
2014-Jun-06 08:33N 44°20' E 008°58'5 4.7
2014-Jun-06 07:33N 44°25' E 008°55'0 0.0
2014-Jun-06 06:24N 44°25' E 008°55'0 0.0
2014-Jun-06 05:12N 44°25' E 008°55'0 0.0
2014-Jun-06 04:30N 44°25' E 008°55'0 0.0
2014-Jun-06 03:30N 44°25' E 008°55'0 0.0
2014-Jun-06 02:27N 44°25' E 008°55'0 0.0
2014-Jun-06 01:33N 44°25' E 008°55'0 0.0
2014-Jun-06 00:27N 44°25' E 008°55'0 0.0
2014-Jun-05 23:21N 44°25' E 008°55'0 0.0
2014-Jun-05 22:30N 44°25' E 008°55'0 0.0
2014-Jun-05 21:30N 44°25' E 008°55'0 0.0
2014-Jun-05 20:24N 44°25' E 008°55'0 0.0
2014-Jun-05 19:30N 44°25' E 008°55'0 0.0
2014-Jun-05 18:24N 44°25' E 008°55'0 0.0
2014-Jun-05 17:18N 44°25' E 008°55'0 0.0
2014-Jun-05 16:24N 44°25' E 008°55'4 5.2
2014-Jun-05 15:33N 44°21' E 008°59'4 3.3
2014-Jun-05 14:15N 44°25' E 008°55'0 0.0
2014-Jun-05 12:12N 44°25' E 008°55'0 0.0
2014-Jun-05 11:21N 44°25' E 008°55'0 0.0
2014-Jun-05 10:24N 44°25' E 008°55'0 0.0
2014-Jun-05 09:30N 44°25' E 008°55'0 0.0
2014-Jun-05 08:24N 44°25' E 008°55'0 0.0
2014-Jun-05 07:30N 44°25' E 008°55'0 0.0
2014-Jun-05 06:33N 44°25' E 008°55'  

Dump ship's entire track history